Time;durP1;ratioP1;P1;durP2;ratioP2;P2;SDS_P1;SDS_P2;PMS_P1;PMS_P2;Temp;Humidity;BMP_temperature;BMP_pressure;BME280_temperature;BME280_humidity;BME280_pressure;Samples;Min_cycle;Max_cycle;Signal;HPM_P1;HPM_P2
2022/03/14 00:00:07;;;;;;;37.73;18.37;;;;;;;0.55;44.11;101511.75;5073345;28;20199;-73
2022/03/14 00:02:39;;;;;;;43.13;19.67;;;;;;;0.51;44.00;101514.16;5067748;28;20596;-73
2022/03/14 00:05:06;;;;;;;37.03;19.93;;;;;;;0.46;44.52;101515.72;5069913;28;20209;-73
2022/03/14 00:07:35;;;;;;;30.90;15.53;;;;;;;0.36;44.40;101512.03;5069524;28;20218;-72
2022/03/14 00:10:03;;;;;;;28.87;14.23;;;;;;;0.33;44.83;101515.34;5069104;28;20621;-73
2022/03/14 00:12:30;;;;;;;33.67;15.97;;;;;;;0.32;45.10;101512.78;5069073;28;20199;-71
2022/03/14 00:14:58;;;;;;;35.10;16.17;;;;;;;0.30;45.18;101514.41;5074769;28;20198;-73
2022/03/14 00:17:25;;;;;;;29.70;15.40;;;;;;;0.36;44.30;101517.16;5071218;28;20261;-74
2022/03/14 00:19:52;;;;;;;38.80;19.30;;;;;;;0.42;44.04;101522.47;5068115;28;20206;-74
2022/03/14 00:22:20;;;;;;;35.63;17.77;;;;;;;0.38;44.44;101515.50;5067944;28;20626;-73
2022/03/14 00:24:47;;;;;;;35.23;19.17;;;;;;;0.41;44.32;101510.47;5068867;28;20199;-72
2022/03/14 00:27:15;;;;;;;35.97;18.13;;;;;;;0.36;44.43;101517.16;5053328;28;20681;-73
2022/03/14 00:29:42;;;;;;;41.27;20.57;;;;;;;0.36;44.66;101518.03;5054046;28;20280;-73
2022/03/14 00:32:09;;;;;;;38.50;18.67;;;;;;;0.36;44.30;101517.16;5067117;28;20659;-74
2022/03/14 00:34:35;;;;;;;34.60;18.27;;;;;;;0.37;44.37;101516.34;5065444;28;20929;-72
2022/03/14 00:37:01;;;;;;;30.80;16.87;;;;;;;0.36;44.43;101517.16;5049933;28;20210;-72
2022/03/14 00:39:28;;;;;;;51.23;25.67;;;;;;;0.44;44.37;101517.38;5072921;28;20227;-72
2022/03/14 00:41:55;;;;;;;30.17;16.07;;;;;;;0.44;44.57;101515.69;5068829;28;20228;-74
2022/03/14 00:44:22;;;;;;;40.33;20.33;;;;;;;0.41;44.37;101518.16;5068153;28;20202;-73
2022/03/14 00:46:50;;;;;;;43.83;19.90;;;;;;;0.36;44.71;101512.88;5071629;28;20560;-73
2022/03/14 00:49:16;;;;;;;34.27;17.27;;;;;;;0.41;44.55;101514.75;5067644;28;20215;-73
2022/03/14 00:51:42;;;;;;;30.87;17.97;;;;;;;0.43;44.62;101510.53;5067837;28;20237;-74
2022/03/14 00:54:09;;;;;;;34.40;18.47;;;;;;;0.41;44.72;101507.91;5066443;28;20205;-73
2022/03/14 00:56:36;;;;;;;34.77;19.13;;;;;;;0.41;44.75;101505.34;5066446;28;20539;-73
2022/03/14 00:59:03;;;;;;;31.20;15.47;;;;;;;0.47;44.70;101509.78;5071871;28;20764;-74
2022/03/14 01:01:31;;;;;;;30.93;15.13;;;;;;;0.46;44.71;101508.03;5066142;28;20202;-74
2022/03/14 01:03:58;;;;;;;27.43;15.10;;;;;;;0.49;44.88;101508.13;5066396;28;20197;-73
2022/03/14 01:06:25;;;;;;;29.00;15.63;;;;;;;0.42;45.01;101503.63;5066273;28;20218;-73
2022/03/14 01:08:51;;;;;;;31.83;14.67;;;;;;;0.41;44.95;101518.16;5067054;28;20804;-73
2022/03/14 01:11:18;;;;;;;30.43;14.97;;;;;;;0.42;45.13;101521.59;5067150;28;20336;-73
2022/03/14 01:13:44;;;;;;;27.17;14.30;;;;;;;0.38;45.13;101511.22;5066993;28;20202;-72
2022/03/14 01:16:11;;;;;;;28.87;14.50;;;;;;;0.31;45.60;101511.88;5066269;28;20760;-73
2022/03/14 01:18:39;;;;;;;28.57;14.77;;;;;;;0.24;45.68;101506.53;5066384;28;20735;-74
2022/03/14 01:21:05;;;;;;;36.67;15.07;;;;;;;0.24;45.90;101502.25;5064150;28;20585;-73
2022/03/14 01:23:32;;;;;;;29.40;13.90;;;;;;;0.21;46.01;101507.28;5065937;28;20247;-74
2022/03/14 01:25:59;;;;;;;26.83;13.60;;;;;;;0.24;46.22;101517.66;5054962;28;20198;-71
2022/03/14 01:28:25;;;;;;;28.83;13.97;;;;;;;0.25;46.06;101514.28;5066067;28;20233;-70
2022/03/14 01:30:52;;;;;;;26.40;13.23;;;;;;;0.22;45.99;101515.88;5068210;28;20218;-73
2022/03/14 01:33:19;;;;;;;27.33;13.23;;;;;;;0.26;45.92;101513.44;5066200;28;20213;-73
2022/03/14 01:35:47;;;;;;;27.57;13.13;;;;;;;0.21;46.26;101516.69;5064031;28;20199;-71
2022/03/14 01:38:16;;;;;;;26.60;13.33;;;;;;;0.16;46.43;101516.56;5063451;28;20218;-73
2022/03/14 01:40:43;;;;;;;26.00;13.80;;;;;;;0.15;46.65;101514.81;5068953;28;20580;-73
2022/03/14 01:43:09;;;;;;;28.43;14.23;;;;;;;0.13;46.75;101522.47;5067382;28;20197;-73
2022/03/14 01:45:35;;;;;;;29.53;12.83;;;;;;;0.14;46.39;101523.31;5069939;28;20206;-73
2022/03/14 01:48:02;;;;;;;25.57;12.70;;;;;;;0.13;46.50;101519.88;5065991;28;20330;-73
2022/03/14 01:50:28;;;;;;;25.30;12.63;;;;;;;0.18;46.44;101517.47;5068943;28;20194;-73
2022/03/14 01:52:56;;;;;;;25.37;13.23;;;;;;;0.16;46.40;101517.44;5067040;28;20200;-73
2022/03/14 01:55:22;;;;;;;25.60;13.03;;;;;;;0.17;46.64;101520.84;5066673;28;20206;-72
2022/03/14 01:57:49;;;;;;;26.60;12.67;;;;;;;0.17;46.82;101521.72;5064928;28;20214;-72
2022/03/14 02:00:15;;;;;;;37.23;14.30;;;;;;;0.12;46.71;101524.97;5066415;28;20206;-73
2022/03/14 02:02:42;;;;;;;25.80;13.83;;;;;;;0.13;46.87;101517.31;5069174;28;20218;-74
2022/03/14 02:05:09;;;;;;;23.73;13.47;;;;;;;0.14;46.85;101523.31;5066014;28;20197;-72
2022/03/14 02:07:36;;;;;;;28.00;13.57;;;;;;;0.10;46.90;101509.53;5065176;28;20226;-73
2022/03/14 02:10:04;;;;;;;29.07;13.43;;;;;;;0.07;47.07;101511.13;5066194;28;20207;-73
2022/03/14 02:12:31;;;;;;;28.53;13.43;;;;;;;0.03;47.21;101509.31;5068332;28;20817;-73
2022/03/14 02:14:57;;;;;;;25.57;13.27;;;;;;;0.03;47.34;101496.47;5065985;28;20818;-73
2022/03/14 02:17:24;;;;;;;27.00;12.97;;;;;;;0.00;47.50;101507.53;5065950;28;20214;-74
2022/03/14 02:19:53;;;;;;;29.97;13.97;;;;;;;-0.02;47.46;101502.34;5065514;28;20233;-73
2022/03/14 02:22:21;;;;;;;30.53;13.80;;;;;;;-0.04;47.53;101503.97;5048224;28;20296;-74
2022/03/14 02:24:48;;;;;;;32.13;15.47;;;;;;;-0.07;47.75;101505.56;5054082;28;20202;-73
2022/03/14 02:27:18;;;;;;;28.43;14.83;;;;;;;-0.10;47.81;101500.38;5066300;28;20214;-74
2022/03/14 02:29:45;;;;;;;36.40;14.40;;;;;;;-0.11;48.00;101496.91;5062683;28;20194;-73
2022/03/14 02:32:12;;;;;;;25.37;12.30;;;;;;;-0.13;47.88;101493.44;5065404;28;20616;-73
2022/03/14 02:34:39;;;;;;;29.07;13.93;;;;;;;-0.15;48.14;101500.22;5067459;28;20205;-72
2022/03/14 02:37:05;;;;;;;28.10;12.80;;;;;;;-0.23;48.50;101511.91;5071766;28;20583;-73
2022/03/14 02:39:34;;;;;;;30.23;13.30;;;;;;;-0.27;48.69;101510.94;5071522;28;20211;-72
2022/03/14 02:42:02;;;;;;;26.53;12.57;;;;;;;-0.33;49.34;101521.00;5051572;28;20226;-74
2022/03/14 02:44:28;;;;;;;29.13;13.07;;;;;;;-0.36;49.26;101520.03;5071833;28;20195;-72
2022/03/14 02:46:57;;;;;;;24.57;12.67;;;;;;;-0.48;50.15;101521.34;5067116;28;20563;-72
2022/03/14 02:49:24;;;;;;;27.97;12.13;;;;;;;-0.53;49.98;101519.47;5068560;28;20219;-74
2022/03/14 02:51:52;;;;;;;29.90;13.00;;;;;;;-0.59;50.49;101528.69;5058436;28;20687;-72
2022/03/14 02:54:19;;;;;;;25.67;13.03;;;;;;;-0.63;50.52;101521.72;5074146;28;20194;-73
2022/03/14 02:56:48;;;;;;;27.37;12.80;;;;;;;-0.69;50.57;101524.06;5069653;28;20195;-73
2022/03/14 02:59:16;;;;;;;23.73;12.80;;;;;;;-0.73;50.51;101527.34;5068879;28;20198;-70
2022/03/14 03:01:42;;;;;;;24.73;12.20;;;;;;;-0.79;50.70;101534.84;5070050;28;20635;-73
2022/03/14 03:04:09;;;;;;;25.40;13.20;;;;;;;-0.85;51.26;101537.16;5069534;28;20198;-73
2022/03/14 03:06:36;;;;;;;23.60;12.53;;;;;;;-0.94;51.89;101532.59;5068642;28;20210;-73
2022/03/14 03:09:03;;;;;;;24.77;12.97;;;;;;;-1.01;51.32;101539.16;5069402;28;20729;-72
2022/03/14 03:11:31;;;;;;;25.50;12.47;;;;;;;-1.06;51.86;101533.00;5068753;28;20198;-73
2022/03/14 03:13:59;;;;;;;26.67;12.90;;;;;;;-1.15;52.59;101541.22;5071824;28;20480;-71
2022/03/14 03:16:26;;;;;;;25.73;12.03;;;;;;;-1.15;52.35;101548.91;5068447;28;20226;-73
2022/03/14 03:18:53;;;;;;;25.37;12.93;;;;;;;-1.20;52.45;101542.75;5074094;28;20230;-72
2022/03/14 03:21:21;;;;;;;27.67;13.50;;;;;;;-1.27;52.21;101545.03;5066335;28;20729;-73
2022/03/14 03:23:47;;;;;;;26.80;13.30;;;;;;;-1.35;52.36;101537.94;5069048;28;20210;-72
2022/03/14 03:26:16;;;;;;;26.40;12.53;;;;;;;-1.40;52.23;101547.16;5070267;28;20590;-72
2022/03/14 03:28:42;;;;;;;26.10;13.13;;;;;;;-1.44;52.76;101549.50;5072801;28;20809;-74
2022/03/14 03:31:13;;;;;;;30.00;13.03;;;;;;;-1.47;52.61;101540.06;5069429;28;20561;-74
2022/03/14 03:33:40;;;;;;;29.20;13.20;;;;;;;-1.49;53.30;101546.81;5071720;28;20208;-74
2022/03/14 03:36:08;;;;;;;25.03;13.07;;;;;;;-1.55;52.95;101547.44;5070358;28;20198;-73
2022/03/14 03:38:35;;;;;;;26.37;12.63;;;;;;;-1.57;53.05;101548.19;5069249;28;20530;-72
2022/03/14 03:41:01;;;;;;;26.00;13.23;;;;;;;-1.62;53.52;101552.25;5057023;28;20461;-73
2022/03/14 03:43:28;;;;;;;25.00;12.80;;;;;;;-1.67;54.24;101557.22;5067511;28;20503;-71
2022/03/14 03:45:54;;;;;;;29.87;13.33;;;;;;;-1.76;53.82;101557.72;5068563;28;20464;-74
2022/03/14 03:48:22;;;;;;;26.63;13.30;;;;;;;-1.81;54.03;101556.66;5069396;28;20478;-72
2022/03/14 03:50:49;;;;;;;30.43;13.80;;;;;;;-1.86;55.11;101554.75;5055800;28;20457;-73
2022/03/14 03:53:18;;;;;;;26.37;13.13;;;;;;;-1.89;54.35;101555.50;5070738;28;20860;-73
2022/03/14 03:55:44;;;;;;;27.67;13.07;;;;;;;-1.89;54.60;101564.84;5070987;28;20468;-72
2022/03/14 03:58:11;;;;;;;27.67;13.40;;;;;;;-1.85;54.47;101566.69;5068870;28;20472;-73
2022/03/14 04:00:39;;;;;;;22.33;12.00;;;;;;;-1.92;54.72;101563.03;5068859;28;20451;-72
2022/03/14 04:03:05;;;;;;;28.50;13.47;;;;;;;-1.94;54.74;101562.09;5068042;28;20483;-73
2022/03/14 04:05:35;;;;;;;29.13;12.97;;;;;;;-1.97;57.62;101565.41;5068335;28;20498;-73
2022/03/14 04:08:02;;;;;;;32.27;13.20;;;;;;;-2.02;55.51;101561.81;5068844;28;20468;-72
2022/03/14 04:10:29;;;;;;;27.23;13.20;;;;;;;-2.02;55.92;101560.91;5065489;28;20459;-71
2022/03/14 04:12:58;;;;;;;26.20;12.17;;;;;;;-2.09;56.00;101559.81;5067770;28;20447;-72
2022/03/14 04:15:27;;;;;;;29.27;14.07;;;;;;;-2.10;56.26;101558.06;5075146;28;20449;-73
2022/03/14 04:17:58;;;;;;;25.90;12.20;;;;;;;-2.15;56.23;101552.75;5071934;28;20939;-74
2022/03/14 04:20:25;;;;;;;28.00;13.07;;;;;;;-2.16;56.13;101551.03;5068888;28;20456;-72
2022/03/14 04:22:53;;;;;;;26.23;13.47;;;;;;;-2.14;55.50;101548.53;5067742;28;20478;-73
2022/03/14 04:25:19;;;;;;;25.67;12.47;;;;;;;-2.12;55.93;101557.13;5068534;28;20829;-73
2022/03/14 04:27:46;;;;;;;29.53;12.70;;;;;;;-2.08;55.93;101555.56;5065492;28;20499;-74
2022/03/14 04:30:16;;;;;;;26.03;12.13;;;;;;;-2.06;56.00;101554.81;5070619;28;20462;-73
2022/03/14 04:32:43;;;;;;;27.70;13.47;;;;;;;-2.11;55.52;101552.09;5068222;28;20458;-73
2022/03/14 04:35:10;;;;;;;26.33;12.80;;;;;;;-2.10;55.70;101548.69;5069628;28;20838;-73
2022/03/14 04:37:36;;;;;;;25.27;13.10;;;;;;;-2.15;57.14;101546.78;5067062;28;20510;-73
2022/03/14 04:40:05;;;;;;;23.30;12.03;;;;;;;-2.14;55.88;101551.09;5066936;28;20480;-72
2022/03/14 04:42:32;;;;;;;31.70;13.80;;;;;;;-2.13;56.38;101547.69;5066986;28;20554;-74
2022/03/14 04:44:58;;;;;;;31.53;13.33;;;;;;;-2.16;56.76;101548.47;5066190;28;20994;-73
2022/03/14 04:47:26;;;;;;;27.17;12.03;;;;;;;-2.15;55.47;101547.63;5066965;28;20475;-73
2022/03/14 04:49:52;;;;;;;28.97;13.07;;;;;;;-2.16;55.58;101551.03;5066424;28;20470;-74
2022/03/14 04:52:21;;;;;;;28.60;13.53;;;;;;;-2.10;55.22;101553.81;5047822;28;20453;-76
2022/03/14 04:54:47;;;;;;;30.20;13.83;;;;;;;-2.09;55.14;101539.38;5067275;28;20452;-73
2022/03/14 04:57:15;;;;;;;24.73;12.37;;;;;;;-2.09;55.52;101536.81;5068812;28;20463;-73
2022/03/14 04:59:42;;;;;;;25.13;12.13;;;;;;;-2.08;55.59;101535.13;5066667;28;20848;-73
2022/03/14 05:02:09;;;;;;;31.30;12.73;;;;;;;-2.15;55.68;101549.31;5067858;28;20477;-73
2022/03/14 05:04:37;;;;;;;30.67;13.23;;;;;;;-2.32;57.95;101571.66;5068510;28;20463;-73
2022/03/14 05:07:03;;;;;;;27.63;12.67;;;;;;;-2.32;62.15;101559.75;5062692;28;20457;-73
2022/03/14 05:09:30;;;;;;;25.43;12.60;;;;;;;-2.41;58.21;101571.25;5066362;28;20460;-73
2022/03/14 05:11:56;;;;;;;28.70;12.70;;;;;;;-2.47;60.31;101566.75;5065070;28;20460;-74
2022/03/14 05:14:24;;;;;;;27.20;12.47;;;;;;;-2.45;67.46;101562.59;5064296;28;20464;-74
2022/03/14 05:16:50;;;;;;;26.07;13.23;;;;;;;-2.56;59.77;101568.94;5063429;28;20463;-75
2022/03/14 05:19:17;;;;;;;28.60;12.20;;;;;;;-2.60;58.80;101573.03;5062788;28;21176;-75
2022/03/14 05:21:43;;;;;;;37.80;18.93;;;;;;;-2.60;60.38;101579.81;5067508;28;20837;-75
2022/03/14 05:24:09;;;;;;;38.17;17.50;;;;;;;-2.59;63.47;101576.47;5067886;28;20474;-75
2022/03/14 05:26:37;;;;;;;26.57;14.13;;;;;;;-2.60;61.84;101574.69;5068029;28;20455;-75
2022/03/14 05:29:04;;;;;;;26.27;13.70;;;;;;;-2.60;59.07;101578.16;5065590;28;21041;-76
2022/03/14 05:31:32;;;;;;;21.80;11.87;;;;;;;-2.54;57.98;101585.19;5063109;28;20477;-76
2022/03/14 05:34:00;;;;;;;28.90;13.27;;;;;;;-2.48;58.26;101583.78;5064592;28;20866;-75
2022/03/14 05:36:26;;;;;;;25.30;12.90;;;;;;;-2.40;57.27;101586.63;5062617;28;20468;-74
2022/03/14 05:38:53;;;;;;;29.83;13.53;;;;;;;-2.36;57.31;101591.06;5062162;28;20479;-75
2022/03/14 05:41:19;;;;;;;24.17;13.33;;;;;;;-2.36;57.35;101590.19;5061630;28;20539;-75
2022/03/14 05:43:46;;;;;;;33.40;14.87;;;;;;;-2.33;57.46;101592.88;5062215;28;20482;-76
2022/03/14 05:46:12;;;;;;;28.33;13.20;;;;;;;-2.30;57.28;101593.03;5060026;28;20467;-76
2022/03/14 05:48:40;;;;;;;28.20;12.40;;;;;;;-2.28;57.33;101583.72;5059440;28;21012;-75
2022/03/14 05:51:07;;;;;;;25.20;11.73;;;;;;;-2.16;56.88;101586.78;5060232;28;20469;-73
2022/03/14 05:53:34;;;;;;;24.63;12.33;;;;;;;-2.16;56.68;101594.47;5063656;28;20912;-73
2022/03/14 05:56:00;;;;;;;22.37;12.00;;;;;;;-2.08;56.67;101601.56;5062286;28;20552;-73
2022/03/14 05:58:27;;;;;;;27.10;12.27;;;;;;;-1.96;56.11;101612.28;5041427;28;20492;-71
2022/03/14 06:00:53;;;;;;;24.20;12.77;;;;;;;-1.84;55.57;101607.69;5057449;28;21046;-72
2022/03/14 06:03:20;;;;;;;22.87;12.73;;;;;;;-1.77;54.72;101604.56;5059372;28;20486;-73
2022/03/14 06:05:49;;;;;;;23.93;11.50;;;;;;;-1.65;54.90;101603.28;5062625;28;20463;-71
2022/03/14 06:08:15;;;;;;;25.20;12.33;;;;;;;-1.49;53.85;101615.00;5061290;28;20834;-73
2022/03/14 06:10:46;;;;;;;23.57;11.53;;;;;;;-1.35;53.13;101618.97;5064161;28;20893;-73
2022/03/14 06:13:13;;;;;;;24.57;12.37;;;;;;;-1.33;53.07;101618.19;5065862;28;20471;-73
2022/03/14 06:15:41;;;;;;;28.57;12.77;;;;;;;-1.21;52.76;101622.91;5065053;28;20455;-73
2022/03/14 06:18:07;;;;;;;23.10;11.40;;;;;;;-1.17;52.81;101623.91;5065659;28;20571;-71
2022/03/14 06:20:34;;;;;;;23.17;12.73;;;;;;;-1.05;52.42;101619.25;5064038;28;20504;-72
2022/03/14 06:23:02;;;;;;;28.50;12.30;;;;;;;-1.02;52.16;101628.72;5048502;28;20502;-71
2022/03/14 06:25:28;;;;;;;24.13;11.17;;;;;;;-1.02;52.29;101621.94;5067810;28;20464;-74
2022/03/14 06:27:55;;;;;;;23.17;11.97;;;;;;;-0.86;51.63;101628.47;5066967;28;20514;-73
2022/03/14 06:30:22;;;;;;;23.33;11.50;;;;;;;-0.84;51.51;101628.53;5069161;28;20456;-73
2022/03/14 06:32:49;;;;;;;22.20;11.57;;;;;;;-0.87;51.81;101633.53;5072006;28;20202;-71
2022/03/14 06:35:17;;;;;;;25.17;11.73;;;;;;;-0.77;52.34;101633.06;5069666;28;20259;-72
2022/03/14 06:37:44;;;;;;;25.87;12.53;;;;;;;-0.71;51.67;101633.28;5068078;28;21074;-73
2022/03/14 06:40:13;;;;;;;27.77;12.47;;;;;;;-0.57;51.50;101631.22;5066615;28;20553;-73
2022/03/14 06:42:41;;;;;;;27.33;11.90;;;;;;;-0.46;50.57;101623.91;5068619;28;20219;-73
2022/03/14 06:45:09;;;;;;;26.73;12.37;;;;;;;-0.33;50.15;101631.22;5064387;28;20301;-73
2022/03/14 06:47:38;;;;;;;24.17;11.23;;;;;;;-0.29;50.52;101629.63;5069230;28;20219;-72
2022/03/14 06:50:05;;;;;;;22.63;12.03;;;;;;;-0.19;50.00;101629.13;5072975;28;20904;-73
2022/03/14 06:52:32;;;;;;;25.60;12.77;;;;;;;-0.08;49.78;101624.34;5072341;28;20205;-74
2022/03/14 06:54:59;;;;;;;23.40;11.17;;;;;;;0.05;49.58;101623.06;5074594;28;20285;-73
2022/03/14 06:57:27;;;;;;;26.53;11.73;;;;;;;0.18;49.20;101620.94;5075534;28;20221;-73
2022/03/14 06:59:53;;;;;;;26.73;12.63;;;;;;;0.34;48.70;101629.13;5072962;28;20268;-72
2022/03/14 07:02:20;;;;;;;23.93;11.17;;;;;;;0.59;48.19;101627.34;5082991;28;20369;-74
2022/03/14 07:04:46;;;;;;;24.70;12.83;;;;;;;0.75;47.79;101632.97;5078573;28;20233;-72
2022/03/14 07:07:12;;;;;;;18.53;11.17;;;;;;;0.79;48.36;101633.06;5073382;28;20198;-73
2022/03/14 07:09:39;;;;;;;23.13;11.13;;;;;;;0.85;48.50;101631.56;5056053;28;20221;-72
2022/03/14 07:12:10;;;;;;;19.33;10.53;;;;;;;0.87;48.18;101632.47;5056454;28;20204;-73
2022/03/14 07:14:38;;;;;;;21.90;11.70;;;;;;;0.97;48.09;101625.91;5068194;28;20191;-74
2022/03/14 07:17:05;;;;;;;21.83;11.37;;;;;;;1.14;47.42;101634.09;5066280;28;20190;-73
2022/03/14 07:19:32;;;;;;;24.40;11.27;;;;;;;1.18;48.05;101624.78;5065195;28;20213;-72
2022/03/14 07:21:58;;;;;;;20.40;10.97;;;;;;;1.32;47.04;101628.63;5063254;28;20308;-71
2022/03/14 07:24:25;;;;;;;23.37;10.47;;;;;;;1.42;46.77;101625.44;5064342;28;20226;-71
2022/03/14 07:26:51;;;;;;;19.17;10.47;;;;;;;1.56;46.56;101632.69;5064096;28;20277;-73
2022/03/14 07:29:18;;;;;;;18.60;9.87;;;;;;;1.62;46.42;101633.72;5065683;28;20264;-71
2022/03/14 07:31:46;;;;;;;21.53;10.10;;;;;;;1.88;45.09;101630.94;5062055;28;20573;-73
2022/03/14 07:34:14;;;;;;;19.03;9.80;;;;;;;2.03;45.16;101638.19;5064589;28;20850;-71
2022/03/14 07:36:42;;;;;;;19.73;9.53;;;;;;;2.17;44.14;101634.25;5071913;28;20199;-73
2022/03/14 07:39:09;;;;;;;21.27;10.33;;;;;;;2.24;44.82;101643.00;5065352;28;20242;-72
2022/03/14 07:41:36;;;;;;;17.83;9.33;;;;;;;2.35;44.64;101644.13;5049557;28;20584;-73
2022/03/14 07:44:03;;;;;;;17.87;9.67;;;;;;;2.44;44.35;101636.59;5066786;28;20207;-70
2022/03/14 07:46:30;;;;;;;16.60;9.00;;;;;;;2.56;44.11;101638.59;5066929;28;20543;-71
2022/03/14 07:48:59;;;;;;;16.57;9.40;;;;;;;2.70;43.88;101643.22;5067150;28;20213;-73
2022/03/14 07:51:28;;;;;;;18.07;9.13;;;;;;;2.92;42.37;101649.69;5065349;28;20448;-73
2022/03/14 07:53:54;;;;;;;16.67;9.10;;;;;;;3.07;42.84;101649.16;5047172;28;20658;-73
2022/03/14 07:56:23;;;;;;;15.43;9.00;;;;;;;3.25;42.18;101651.25;5063870;28;20654;-73
2022/03/14 07:58:50;;;;;;;15.33;8.37;;;;;;;3.38;42.50;101656.69;5066528;28;20589;-74
2022/03/14 08:01:18;;;;;;;15.83;8.30;;;;;;;3.51;41.73;101662.94;5070000;28;20210;-73
2022/03/14 08:03:45;;;;;;;15.43;8.23;;;;;;;3.60;41.55;101659.66;5067394;28;20919;-73
2022/03/14 08:06:22;;;;;;;15.03;8.40;;;;;;;3.76;42.08;101665.97;5067953;28;20195;-72
2022/03/14 08:08:50;;;;;;;16.23;8.30;;;;;;;3.97;40.86;101665.50;5069716;28;20226;-73
2022/03/14 08:11:17;;;;;;;16.20;9.60;;;;;;;4.13;40.53;101666.63;5061646;28;20569;-73
2022/03/14 08:13:44;;;;;;;15.03;9.67;;;;;;;4.26;40.94;101665.16;5066484;28;20198;-73
2022/03/14 08:16:10;;;;;;;18.77;10.47;;;;;;;4.45;40.00;101671.44;5067895;28;20206;-73
2022/03/14 08:18:38;;;;;;;15.70;8.63;;;;;;;4.59;39.81;101672.56;5065175;28;20305;-74
2022/03/14 08:21:04;;;;;;;14.53;8.83;;;;;;;4.72;39.17;101686.53;5051120;28;20585;-74
2022/03/14 08:23:35;;;;;;;13.40;8.37;;;;;;;4.82;39.23;101687.50;5062055;28;20219;-72
2022/03/14 08:26:01;;;;;;;12.07;7.47;;;;;;;5.01;38.70;101688.66;5063636;28;20217;-72
2022/03/14 08:28:27;;;;;;;10.67;6.30;;;;;;;5.14;37.89;101695.72;5048014;28;20599;-73
2022/03/14 08:30:54;;;;;;;12.73;8.10;;;;;;;5.27;37.63;101687.25;5064629;28;20700;-74
2022/03/14 08:33:22;;;;;;;12.37;7.63;;;;;;;5.41;38.03;101692.63;5061569;28;20205;-71
2022/03/14 08:35:49;;;;;;;11.50;8.03;;;;;;;5.49;37.69;101695.31;5044898;28;20211;-73
2022/03/14 08:38:17;;;;;;;9.60;6.83;;;;;;;5.57;37.30;101698.84;5071221;28;20584;-72
2022/03/14 08:40:44;;;;;;;11.20;6.93;;;;;;;5.73;37.46;101707.63;5066168;28;20198;-74
2022/03/14 08:43:11;;;;;;;10.23;6.90;;;;;;;5.84;37.38;101703.47;5066409;28;20283;-74
2022/03/14 08:45:43;;;;;;;10.97;6.90;;;;;;;5.97;37.95;101706.22;5065636;28;20589;-73
2022/03/14 08:48:10;;;;;;;13.97;7.20;;;;;;;6.15;37.02;101706.38;5066067;28;20222;-74
2022/03/14 08:50:38;;;;;;;10.20;5.90;;;;;;;6.28;37.05;101706.50;5047662;28;20211;-73
2022/03/14 08:53:04;;;;;;;9.53;5.50;;;;;;;6.32;36.84;101697.91;5066163;28;20195;-74
2022/03/14 08:55:31;;;;;;;9.33;6.47;;;;;;;6.39;36.93;101697.09;5065886;28;20232;-73
2022/03/14 08:57:58;;;;;;;8.43;5.87;;;;;;;6.53;36.33;101698.09;5065658;28;20296;-72
2022/03/14 09:00:27;;;;;;;8.73;6.40;;;;;;;6.67;36.06;101703.38;5052130;28;20196;-74
2022/03/14 09:02:54;;;;;;;11.30;6.63;;;;;;;6.75;35.99;101712.03;5067024;28;20244;-74
2022/03/14 09:05:21;;;;;;;9.90;6.50;;;;;;;6.85;35.40;101704.34;5068693;28;20285;-74
2022/03/14 09:07:47;;;;;;;8.17;6.23;;;;;;;6.95;35.42;101709.59;5065156;28;20218;-72
2022/03/14 09:10:17;;;;;;;11.03;7.30;;;;;;;7.12;35.61;101711.41;5066002;28;20664;-73
2022/03/14 09:12:44;;;;;;;7.17;5.67;;;;;;;7.27;35.17;101718.44;5069454;28;20691;-73
2022/03/14 09:15:13;;;;;;;11.80;7.17;;;;;;;7.38;33.86;101716.75;5066463;28;20604;-73
2022/03/14 09:17:47;;;;;;;8.93;6.00;;;;;;;7.53;34.44;101716.81;5063603;28;20249;-73
2022/03/14 09:20:15;;;;;;;6.93;5.33;;;;;;;7.52;34.45;101703.81;5052425;28;20760;-73
2022/03/14 09:22:44;;;;;;;8.97;5.67;;;;;;;7.65;33.83;101703.03;5065161;28;20222;-73
2022/03/14 09:25:11;;;;;;;9.77;6.43;;;;;;;7.69;34.14;101709.09;5070988;28;20984;-73
2022/03/14 09:27:37;;;;;;;8.83;6.30;;;;;;;7.81;33.82;101709.13;5048123;28;20747;-73
2022/03/14 09:30:05;;;;;;;7.70;6.37;;;;;;;7.82;33.48;101705.63;5077533;28;20237;-73
2022/03/14 09:32:32;;;;;;;8.23;5.53;;;;;;;7.91;33.83;101710.84;5066959;28;20199;-73
2022/03/14 09:34:59;;;;;;;11.13;6.33;;;;;;;8.02;33.30;101705.72;5061059;28;20197;-73
2022/03/14 09:37:26;;;;;;;8.13;5.83;;;;;;;8.17;33.29;101706.59;5065552;28;20222;-73
2022/03/14 09:39:52;;;;;;;8.33;5.87;;;;;;;8.14;32.87;101726.50;5047600;28;20335;-73
2022/03/14 09:42:21;;;;;;;10.57;5.77;;;;;;;8.26;32.99;101714.38;5066424;28;20206;-73
2022/03/14 09:44:53;;;;;;;11.83;6.33;;;;;;;8.31;32.80;101726.50;5065656;28;20237;-73
2022/03/14 09:47:21;;;;;;;12.43;6.97;;;;;;;8.39;33.37;101725.63;5064474;28;20203;-73
2022/03/14 09:49:49;;;;;;;13.23;7.50;;;;;;;8.49;32.75;101717.88;5061739;28;20203;-73
2022/03/14 09:52:17;;;;;;;10.20;7.00;;;;;;;8.57;32.42;101722.22;5066710;28;20202;-73
2022/03/14 09:54:43;;;;;;;10.67;6.60;;;;;;;8.71;33.40;101720.47;5065087;28;20195;-73
2022/03/14 09:57:10;;;;;;;9.17;6.13;;;;;;;8.68;32.38;101726.53;5064912;28;20247;-73
2022/03/14 09:59:37;;;;;;;10.97;6.73;;;;;;;8.74;32.61;101730.00;5065921;28;20198;-73
2022/03/14 10:02:05;;;;;;;9.53;5.97;;;;;;;8.80;32.52;101720.47;5066927;28;20360;-73
2022/03/14 10:04:31;;;;;;;9.23;6.30;;;;;;;8.91;32.12;101721.31;5070704;28;20252;-73
2022/03/14 10:06:59;;;;;;;8.43;6.47;;;;;;;9.03;32.10;101732.56;5065617;28;20198;-73
2022/03/14 10:09:25;;;;;;;10.97;7.73;;;;;;;9.09;32.38;101716.94;5065804;28;20215;-73
2022/03/14 10:11:51;;;;;;;9.93;7.00;;;;;;;9.19;32.92;101721.25;5065498;28;20214;-73
2022/03/14 10:14:19;;;;;;;12.80;6.30;;;;;;;9.19;32.36;101720.38;5068294;28;20636;-73
2022/03/14 10:16:45;;;;;;;8.13;6.60;;;;;;;9.23;31.52;101727.31;5070989;28;20215;-73
2022/03/14 10:19:20;;;;;;;10.57;6.77;;;;;;;9.31;31.62;101724.69;5047061;28;20214;-73
2022/03/14 10:21:47;;;;;;;12.57;6.10;;;;;;;9.38;32.37;101716.00;5065018;28;20811;-73
2022/03/14 10:24:14;;;;;;;10.30;6.70;;;;;;;9.42;32.12;101722.91;5047677;28;20219;-73
2022/03/14 10:26:43;;;;;;;8.60;6.27;;;;;;;9.42;31.49;101728.97;5066374;28;20203;-73
2022/03/14 10:29:12;;;;;;;10.27;6.57;;;;;;;9.54;31.52;101732.41;5065032;28;20792;-73
2022/03/14 10:31:41;;;;;;;8.63;6.37;;;;;;;9.63;32.02;101737.56;5064856;28;20192;-73
2022/03/14 10:34:10;;;;;;;9.60;6.47;;;;;;;9.63;31.45;101728.00;5062799;28;20191;-73
2022/03/14 10:36:45;;;;;;;10.67;6.43;;;;;;;9.79;31.45;101740.97;5065109;28;20626;-73
2022/03/14 10:39:15;;;;;;;12.07;6.80;;;;;;;9.81;31.67;101741.81;5065144;28;20239;-73
2022/03/14 10:41:41;;;;;;;8.70;6.27;;;;;;;9.89;31.34;101741.81;5063540;28;20257;-73
2022/03/14 10:44:08;;;;;;;13.33;6.83;;;;;;;9.97;31.40;101742.59;5067489;28;20221;-73
2022/03/14 10:46:39;;;;;;;10.17;6.13;;;;;;;10.07;31.20;101741.69;5067544;28;20304;-73
2022/03/14 10:49:09;;;;;;;11.07;6.33;;;;;;;10.22;31.23;101752.00;5061102;28;20218;-73
2022/03/14 10:51:51;;;;;;;8.97;6.97;;;;;;;10.23;30.67;101750.25;5064708;28;20205;-73
2022/03/14 10:54:19;;;;;;;7.87;6.30;;;;;;;10.14;30.81;101750.34;5047627;28;20739;-73
2022/03/14 10:57:00;;;;;;;8.37;6.47;;;;;;;10.23;30.55;101747.66;5066139;28;20194;-73
2022/03/14 10:59:33;;;;;;;9.03;6.30;;;;;;;10.30;30.58;101756.31;5069099;28;20222;-73
2022/03/14 11:02:01;;;;;;;9.13;6.97;;;;;;;10.34;31.32;101760.66;5068572;28;20190;-73
2022/03/14 11:04:40;;;;;;;9.43;6.30;;;;;;;10.37;30.89;101761.47;5073287;28;20204;-73
2022/03/14 11:07:06;;;;;;;8.37;6.87;;;;;;;10.45;31.11;101757.94;5068132;28;20832;-73
2022/03/14 11:09:42;;;;;;;9.90;6.47;;;;;;;10.48;30.99;101747.50;5050067;28;20212;-73
2022/03/14 11:12:10;;;;;;;9.23;7.13;;;;;;;10.56;30.47;101751.78;5049368;28;20202;-73
2022/03/14 11:14:38;;;;;;;8.10;6.63;;;;;;;10.67;30.91;101756.91;5068098;28;20997;-73
2022/03/14 11:17:17;;;;;;;9.33;6.53;;;;;;;10.73;30.61;101759.47;5067313;28;20198;-73